MRLM

Details ICAO MRLM (LIO)
Name LIMON INTL
Region Costa Rica
Timezone Unknown (UTC+0.0)
Plans Departing 15
Arriving 18
Stats Elevation 7 ft / 2 m (AMSL)
Location 9.957959° -83.022006°
Runways 1
Magnetic Variation 2.488° W
Sunrise 2018-05-24 11:11:28 UTC / 2018-05-24 11:11:28 Local
Sunset 2018-05-24 23:49:18 UTC / 2018-05-24 23:49:18 Local
Advertisement - Login to hide

Runways

ID Width Length Bearing (true) Bearing (mag) Surface Threshold Offset Overrun Length
14 98 ft / 30 m 5,897 ft / 1,797 m 146.50° 148.99° Asphalt 0 ft / 0 m 0 ft / 0 m
32 98 ft / 30 m 5,897 ft / 1,797 m 326.50° 328.99° Asphalt 0 ft / 0 m 0 ft / 0 m

Map

Weather


0- 5 10 15 20 25 30 35+ Temperature / ° C

Clouds and Precipitation
Forecast for 2018-05-25 00:00 UTC. Updated 3 hours ago

Ground ~20,000 ft ~40,000 ft Winds

METAR

Not found

TAF

TAF TAF MRLM 242300Z 2500/2524 08006KT 9999 FEW030 TX30/2519Z TN22/2511Z TEMPO 2505/2515 25007KT

Frequencies

Tower 118.80 MHz FIS
Warning: Do not use this data for real-world aviation or navigation. No guarantee of current accuracy is given.